createdAt,value
2019-06-08T00:00:22.492Z,100950.45
2019-06-08T00:02:53.981Z,100943.19
2019-06-08T00:05:25.272Z,100960.84
2019-06-08T00:07:56.624Z,100981.98
2019-06-08T00:10:27.846Z,100976.16
2019-06-08T00:12:59.162Z,100986.29
2019-06-08T00:15:30.428Z,100991.07
2019-06-08T00:18:01.687Z,100980.30
2019-06-08T00:20:32.956Z,100972.25
2019-06-08T00:23:04.319Z,100978.42
2019-06-08T00:25:35.550Z,100994.48
2019-06-08T00:28:06.909Z,101021.52
2019-06-08T00:30:39.302Z,101035.48
2019-06-08T00:33:10.472Z,101056.96
2019-06-08T00:35:41.735Z,101061.56
2019-06-08T00:38:12.999Z,101079.94
2019-06-08T00:40:44.788Z,101071.40
2019-06-08T00:43:17.272Z,101057.96
2019-06-08T00:45:48.880Z,101041.38
2019-06-08T00:48:21.150Z,101047.36
2019-06-08T00:50:52.468Z,101074.67
2019-06-08T00:53:23.731Z,101046.05
2019-06-08T00:55:54.984Z,101043.18
2019-06-08T00:58:26.413Z,101071.02
2019-06-08T01:00:57.728Z,101071.13
2019-06-08T01:03:30.025Z,101056.59
2019-06-08T01:06:01.418Z,101054.74
2019-06-08T01:08:32.643Z,101060.41
2019-06-08T01:11:03.909Z,101044.45
2019-06-08T01:13:35.136Z,101039.17
2019-06-08T01:16:06.392Z,101019.61
2019-06-08T01:18:37.681Z,101061.84
2019-06-08T01:21:08.941Z,101093.33
2019-06-08T01:23:40.239Z,101098.64
2019-06-08T01:26:11.516Z,101084.09
2019-06-08T01:28:42.733Z,101070.94
2019-06-08T01:31:14.051Z,101083.40
2019-06-08T01:33:45.246Z,101070.63
2019-06-08T01:36:16.484Z,101101.21
2019-06-08T01:38:47.703Z,101116.56
2019-06-08T01:41:18.971Z,101116.88
2019-06-08T01:43:50.196Z,101116.00
2019-06-08T01:46:21.910Z,101108.45
2019-06-08T01:48:53.271Z,101125.66
2019-06-08T01:51:24.634Z,101120.15
2019-06-08T01:53:57.033Z,101113.80
2019-06-08T01:56:29.203Z,101104.39
2019-06-08T01:59:00.831Z,101095.88
2019-06-08T02:01:32.205Z,101101.05
2019-06-08T02:04:03.586Z,101103.67
2019-06-08T02:06:34.855Z,101101.55
2019-06-08T02:09:08.620Z,101127.82
2019-06-08T02:11:39.913Z,101138.60
2019-06-08T02:14:11.335Z,101124.59
2019-06-08T02:16:42.650Z,101128.66
2019-06-08T02:19:14.107Z,101112.73
2019-06-08T02:21:45.377Z,101100.84
2019-06-08T02:24:16.608Z,101095.11
2019-06-08T02:26:47.838Z,101100.54
2019-06-08T02:29:19.224Z,101093.92
2019-06-08T02:31:50.559Z,101094.42
2019-06-08T02:34:21.820Z,101092.70
2019-06-08T02:36:53.074Z,101079.94
2019-06-08T02:39:24.413Z,101076.41
2019-06-08T02:41:55.799Z,101067.09
2019-06-08T02:44:28.299Z,101043.20
2019-06-08T02:46:59.968Z,101012.19
2019-06-08T02:49:31.241Z,101020.59
2019-06-08T02:52:02.508Z,101049.91
2019-06-08T02:54:37.222Z,101066.30
2019-06-08T02:57:07.847Z,101071.61
2019-06-08T02:59:40.939Z,101079.52
2019-06-08T03:02:12.068Z,101085.71
2019-06-08T03:04:43.330Z,101097.27
2019-06-08T03:07:16.779Z,101094.18
2019-06-08T03:09:49.570Z,101082.21
2019-06-08T03:12:21.563Z,101087.53
2019-06-08T03:14:54.626Z,101098.17
2019-06-08T03:17:25.847Z,101100.83
2019-06-08T03:19:57.156Z,101111.47
2019-06-08T03:22:28.461Z,101104.36
2019-06-08T03:25:00.259Z,101095.52
2019-06-08T03:27:32.646Z,101105.23
2019-06-08T03:30:16.268Z,101107.86
2019-06-08T03:32:47.034Z,101098.37
2019-06-08T03:35:11.085Z,101108.45
2019-06-08T03:37:44.276Z,101128.31
2019-06-08T03:40:16.452Z,101128.62
2019-06-08T03:42:49.001Z,101129.38
2019-06-08T03:45:20.687Z,101141.64
2019-06-08T03:47:51.927Z,101147.72
2019-06-08T03:50:23.185Z,101143.12
2019-06-08T03:52:54.476Z,101141.63
2019-06-08T03:55:25.773Z,101138.78
2019-06-08T03:57:57.059Z,101142.15
2019-06-08T04:00:28.536Z,101151.78
2019-06-08T04:03:01.434Z,101150.30
2019-06-08T04:05:33.776Z,101144.90
2019-06-08T04:08:05.118Z,101143.00
2019-06-08T04:10:37.658Z,101150.84
2019-06-08T04:13:11.558Z,101156.99
2019-06-08T04:15:42.661Z,101158.98
2019-06-08T04:18:14.855Z,101177.08
2019-06-08T04:20:48.508Z,101185.87
2019-06-08T04:23:19.306Z,101187.12
2019-06-08T04:25:50.791Z,101186.86
2019-06-08T04:28:23.020Z,101189.72
2019-06-08T04:30:54.210Z,101194.98
2019-06-08T04:33:25.494Z,101205.56
2019-06-08T04:35:56.690Z,101210.33
2019-06-08T04:38:27.930Z,101217.70
2019-06-08T04:40:59.083Z,101220.27
2019-06-08T04:43:30.305Z,101234.50
2019-06-08T04:46:01.586Z,101233.77
2019-06-08T04:48:32.862Z,101229.41
2019-06-08T04:51:04.245Z,101210.37
2019-06-08T04:53:35.515Z,101212.98
2019-06-08T04:56:06.765Z,101213.80
2019-06-08T04:58:39.801Z,101199.58
2019-06-08T05:01:11.035Z,101209.65
2019-06-08T05:03:43.279Z,101218.58
2019-06-08T05:06:14.623Z,101222.64
2019-06-08T05:08:47.208Z,101232.48
2019-06-08T05:11:18.793Z,101232.16
2019-06-08T05:13:50.004Z,101216.27
2019-06-08T05:16:21.224Z,101221.21
2019-06-08T05:18:52.677Z,101214.16
2019-06-08T05:21:23.857Z,101215.16
2019-06-08T05:23:58.931Z,101214.46
2019-06-08T05:26:28.146Z,101214.09
2019-06-08T05:28:59.289Z,101217.70
2019-06-08T05:31:30.525Z,101232.86
2019-06-08T05:34:01.829Z,101226.30
2019-06-08T05:36:33.540Z,101216.63
2019-06-08T05:39:07.164Z,101229.58
2019-06-08T05:41:39.381Z,101231.86
2019-06-08T05:44:11.779Z,101236.02
2019-06-08T05:46:43.736Z,101247.27
2019-06-08T05:49:15.009Z,101234.03
2019-06-08T05:51:46.184Z,101233.98
2019-06-08T05:54:17.471Z,101243.70
2019-06-08T05:56:50.255Z,101255.61
2019-06-08T05:59:22.601Z,101257.81
2019-06-08T06:01:53.847Z,101250.26
2019-06-08T06:04:25.153Z,101258.19
2019-06-08T06:06:56.621Z,101239.38
2019-06-08T06:09:28.016Z,101231.38
2019-06-08T06:11:59.185Z,101238.02
2019-06-08T06:14:30.683Z,101243.23
2019-06-08T06:17:01.945Z,101240.95
2019-06-08T06:19:34.822Z,101253.86
2019-06-08T06:22:06.136Z,101286.25
2019-06-08T06:24:37.381Z,101301.77
2019-06-08T06:27:08.560Z,101304.92
2019-06-08T06:29:39.785Z,101276.66
2019-06-08T06:32:11.114Z,101263.00
2019-06-08T06:34:43.802Z,101275.08
2019-06-08T06:37:15.115Z,101274.70
2019-06-08T06:39:46.337Z,101269.85
2019-06-08T06:42:17.631Z,101291.11
2019-06-08T06:44:49.359Z,101310.58
2019-06-08T06:47:21.837Z,101316.26
2019-06-08T06:49:52.988Z,101317.51
2019-06-08T06:52:24.205Z,101328.09
2019-06-08T06:54:55.402Z,101336.80
2019-06-08T06:57:26.559Z,101327.00
2019-06-08T06:59:57.782Z,101315.55
2019-06-08T07:02:29.149Z,101312.64
2019-06-08T07:05:00.502Z,101317.67
2019-06-08T07:07:31.759Z,101330.22
2019-06-08T07:10:04.294Z,101334.80
2019-06-08T07:12:35.646Z,101369.02
2019-06-08T07:15:07.745Z,101378.88
2019-06-08T07:17:39.037Z,101357.33
2019-06-08T07:20:10.254Z,101331.30
2019-06-08T07:22:41.520Z,101322.16
2019-06-08T07:25:12.746Z,101342.52
2019-06-08T07:27:44.021Z,101342.09
2019-06-08T07:30:15.997Z,101349.20
2019-06-08T07:32:48.122Z,101379.89
2019-06-08T07:35:21.435Z,101396.35
2019-06-08T07:37:53.714Z,101377.78
2019-06-08T07:40:24.972Z,101364.57
2019-06-08T07:42:56.744Z,101364.25
2019-06-08T07:45:29.187Z,101374.13
2019-06-08T07:48:00.713Z,101382.20
2019-06-08T07:50:31.898Z,101375.22
2019-06-08T07:53:03.182Z,101376.77
2019-06-08T07:55:34.984Z,101391.61
2019-06-08T07:58:06.303Z,101401.16
2019-06-08T08:00:37.541Z,101378.67
2019-06-08T08:03:10.410Z,101376.02
2019-06-08T08:05:41.709Z,101373.69
2019-06-08T08:08:12.867Z,101389.20
2019-06-08T08:10:44.110Z,101391.02
2019-06-08T08:13:15.411Z,101393.19
2019-06-08T08:15:46.580Z,101390.52
2019-06-08T08:18:17.825Z,101402.16
2019-06-08T08:20:49.455Z,101409.81
2019-06-08T08:23:20.771Z,101412.64
2019-06-08T08:25:53.077Z,101422.19
2019-06-08T08:28:24.536Z,101397.86
2019-06-08T08:30:58.567Z,101396.20
2019-06-08T08:33:28.766Z,101387.01
2019-06-08T08:36:01.835Z,101387.01
2019-06-08T08:38:32.802Z,101400.36
2019-06-08T08:41:07.645Z,101404.72
2019-06-08T08:43:37.731Z,101410.16
2019-06-08T08:46:09.126Z,101400.43
2019-06-08T08:48:40.349Z,101417.31
2019-06-08T08:51:11.846Z,101428.42
2019-06-08T08:53:43.133Z,101431.95
2019-06-08T08:56:15.512Z,101415.19
2019-06-08T08:58:47.770Z,101422.80
2019-06-08T09:01:20.573Z,101427.25
2019-06-08T09:03:55.577Z,101440.64
2019-06-08T09:06:24.881Z,101433.91
2019-06-08T09:08:59.694Z,101444.63
2019-06-08T09:11:29.109Z,101432.58
2019-06-08T09:14:05.121Z,101439.64
2019-06-08T09:16:34.284Z,101452.03
2019-06-08T09:19:07.898Z,101461.86
2019-06-08T09:21:38.599Z,101464.14
2019-06-08T09:24:10.186Z,101437.86
2019-06-08T09:26:41.782Z,101445.88
2019-06-08T09:29:13.173Z,101444.55
2019-06-08T09:31:44.570Z,101432.12
2019-06-08T09:34:19.290Z,101428.59
2019-06-08T09:36:49.033Z,101453.08
2019-06-08T09:39:20.388Z,101456.16
2019-06-08T09:41:53.751Z,101474.00
2019-06-08T09:44:26.099Z,101470.05
2019-06-08T09:47:02.771Z,101470.63
2019-06-08T09:49:31.339Z,101474.44
2019-06-08T09:52:04.919Z,101475.18
2019-06-08T09:54:38.246Z,101478.66
2019-06-08T09:57:09.491Z,101487.72
2019-06-08T09:59:42.865Z,101483.38
2019-06-08T10:02:14.283Z,101480.83
2019-06-08T10:04:45.672Z,101483.50
2019-06-08T10:07:18.631Z,101477.37
2019-06-08T10:09:50.310Z,101501.55
2019-06-08T10:12:21.779Z,101487.08
2019-06-08T10:14:54.469Z,101488.56
2019-06-08T10:17:27.781Z,101478.62
2019-06-08T10:20:00.655Z,101486.38
2019-06-08T10:22:31.777Z,101492.00
2019-06-08T10:25:06.576Z,101493.98
2019-06-08T10:27:38.444Z,101500.41
2019-06-08T10:30:10.307Z,101482.36
2019-06-08T10:32:41.779Z,101478.58
2019-06-08T10:35:13.061Z,101490.36
2019-06-08T10:37:44.467Z,101486.53
2019-06-08T10:40:18.549Z,101494.67
2019-06-08T10:42:48.636Z,101485.47
2019-06-08T10:45:22.401Z,101497.61
2019-06-08T10:47:53.603Z,101491.95
2019-06-08T10:50:28.684Z,101481.83
2019-06-08T10:53:02.308Z,101485.97
2019-06-08T10:55:31.668Z,101519.04
2019-06-08T10:58:04.385Z,101490.09
2019-06-08T11:00:38.689Z,101494.59
2019-06-08T11:03:10.534Z,101495.98
2019-06-08T11:05:42.000Z,101504.16
2019-06-08T11:08:14.712Z,101485.50
2019-06-08T11:10:47.487Z,101488.63
2019-06-08T11:13:19.900Z,101498.84
2019-06-08T11:15:51.155Z,101504.25
2019-06-08T11:18:22.365Z,101506.59
2019-06-08T11:20:53.587Z,101512.84
2019-06-08T11:23:24.904Z,101501.77
2019-06-08T11:26:03.244Z,101494.73
2019-06-08T11:28:28.940Z,101516.70
2019-06-08T11:31:01.780Z,101513.22
2019-06-08T11:33:34.433Z,101507.52
2019-06-08T11:36:09.987Z,101496.09
2019-06-08T11:38:38.642Z,101510.06
2019-06-08T11:41:13.146Z,101516.87
2019-06-08T11:43:42.748Z,101509.34
2019-06-08T11:46:14.049Z,101500.44
2019-06-08T11:48:45.253Z,101492.42
2019-06-08T11:51:16.645Z,101514.70
2019-06-08T11:53:51.267Z,101500.50
2019-06-08T11:56:20.932Z,101527.27
2019-06-08T11:58:52.678Z,101528.59
2019-06-08T12:01:23.948Z,101538.42
2019-06-08T12:03:57.819Z,101544.28
2019-06-08T12:06:28.445Z,101534.90
2019-06-08T12:09:00.273Z,101531.31
2019-06-08T12:11:32.155Z,101567.00
2019-06-08T12:14:03.355Z,101552.81
2019-06-08T12:16:34.590Z,101535.10
2019-06-08T12:19:06.804Z,101536.64
2019-06-08T12:21:38.789Z,101531.51
2019-06-08T12:24:10.437Z,101539.42
2019-06-08T12:26:42.067Z,101562.72
2019-06-08T12:29:14.562Z,101535.52
2019-06-08T12:31:46.261Z,101547.61
2019-06-08T12:34:18.502Z,101544.05
2019-06-08T12:36:49.902Z,101552.98
2019-06-08T12:39:21.510Z,101553.86
2019-06-08T12:41:52.959Z,101547.27
2019-06-08T12:44:26.172Z,101552.75
2019-06-08T12:46:58.539Z,101554.54
2019-06-08T12:49:29.921Z,101580.77
2019-06-08T12:52:01.325Z,101577.14
2019-06-08T12:54:32.643Z,101551.33
2019-06-08T12:57:03.794Z,101558.13
2019-06-08T12:59:34.936Z,101557.78
2019-06-08T13:02:08.914Z,101557.97
2019-06-08T13:04:39.184Z,101558.42
2019-06-08T13:07:11.601Z,101564.70
2019-06-08T13:09:43.421Z,101574.20
2019-06-08T13:12:15.122Z,101552.39
2019-06-08T13:14:47.721Z,101569.84
2019-06-08T13:17:21.165Z,101571.70
2019-06-08T13:19:52.256Z,101565.53
2019-06-08T13:22:27.815Z,101562.06
2019-06-08T13:25:14.419Z,101553.70
2019-06-08T13:27:29.431Z,101570.31
2019-06-08T13:30:00.652Z,101578.80
2019-06-08T13:32:33.387Z,101584.15
2019-06-08T13:35:04.593Z,101596.28
2019-06-08T13:37:35.781Z,101585.72
2019-06-08T13:40:08.257Z,101587.14
2019-06-08T13:42:39.506Z,101593.05
2019-06-08T13:45:11.447Z,101586.45
2019-06-08T13:47:42.695Z,101606.72
2019-06-08T13:50:14.493Z,101590.70
2019-06-08T13:52:45.758Z,101595.16
2019-06-08T13:55:36.293Z,101585.73
2019-06-08T13:57:49.960Z,101596.86
2019-06-08T14:00:32.516Z,101596.41
2019-06-08T14:03:04.526Z,101591.70
2019-06-08T14:05:38.511Z,101592.05
2019-06-08T14:08:10.949Z,101596.06
2019-06-08T14:10:41.803Z,101583.14
2019-06-08T14:13:13.131Z,101606.45
2019-06-08T14:15:44.276Z,101624.83
2019-06-08T14:18:18.491Z,101598.12
2019-06-08T14:20:48.560Z,101603.53
2019-06-08T14:23:21.672Z,101609.64
2019-06-08T14:25:56.646Z,101618.47
2019-06-08T14:28:26.620Z,101610.44
2019-06-08T14:30:59.400Z,101607.78
2019-06-08T14:33:33.153Z,101604.67
2019-06-08T14:36:03.631Z,101611.80
2019-06-08T14:38:38.539Z,101626.00
2019-06-08T14:41:07.785Z,101621.55
2019-06-08T14:43:39.949Z,101627.65
2019-06-08T14:46:11.266Z,101665.49
2019-06-08T14:48:45.214Z,101617.72
2019-06-08T14:51:15.426Z,101639.16
2019-06-08T14:53:48.541Z,101632.47
2019-06-08T14:56:21.025Z,101618.10
2019-06-08T14:58:52.474Z,101652.77
2019-06-08T15:01:25.358Z,101636.66
2019-06-08T15:03:58.611Z,101631.76
2019-06-08T15:06:33.959Z,101629.51
2019-06-08T15:09:02.751Z,101630.77
2019-06-08T15:11:37.958Z,101621.78
2019-06-08T15:14:08.679Z,101625.69
2019-06-08T15:16:41.879Z,101631.55
2019-06-08T15:19:12.766Z,101637.87
2019-06-08T15:21:43.973Z,101637.47
2019-06-08T15:24:15.191Z,101648.90
2019-06-08T15:26:48.846Z,101638.38
2019-06-08T15:29:19.269Z,101639.97
2019-06-08T15:31:50.515Z,101622.21
2019-06-08T15:34:21.715Z,101616.13
2019-06-08T15:36:52.953Z,101630.05
2019-06-08T15:39:25.545Z,101622.16
2019-06-08T15:41:59.954Z,101633.83
2019-06-08T15:44:30.744Z,101644.05
2019-06-08T15:47:03.166Z,101643.08
2019-06-08T15:49:34.464Z,101636.80
2019-06-08T15:52:05.713Z,101640.80
2019-06-08T15:54:40.476Z,101639.91
2019-06-08T15:57:09.825Z,101634.39
2019-06-08T15:59:41.965Z,101669.45
2019-06-08T16:02:13.357Z,101652.86
2019-06-08T16:04:44.595Z,101644.27
2019-06-08T16:07:16.774Z,101651.81
2019-06-08T16:09:48.203Z,101636.64
2019-06-08T16:12:19.373Z,101640.66
2019-06-08T16:14:50.558Z,101633.56
2019-06-08T16:17:21.780Z,101640.77
2019-06-08T16:19:53.325Z,101635.96
2019-06-08T16:22:25.745Z,101633.73
2019-06-08T16:24:57.031Z,101637.84
2019-06-08T16:27:28.221Z,101640.97
2019-06-08T16:30:00.641Z,101640.56
2019-06-08T16:32:33.518Z,101646.83
2019-06-08T16:35:05.119Z,101642.39
2019-06-08T16:37:36.346Z,101649.95
2019-06-08T16:40:07.696Z,101631.69
2019-06-08T16:42:38.868Z,101635.64
2019-06-08T16:45:10.175Z,101631.20
2019-06-08T16:47:43.716Z,101648.56
2019-06-08T16:50:24.087Z,101639.58
2019-06-08T16:52:48.389Z,101643.56
2019-06-08T16:55:19.672Z,101651.95
2019-06-08T16:57:50.866Z,101658.50
2019-06-08T17:00:31.456Z,101644.58
2019-06-08T17:02:55.482Z,101643.16
2019-06-08T17:05:26.698Z,101661.39
2019-06-08T17:07:57.874Z,101676.56
2019-06-08T17:10:30.398Z,101644.89
2019-06-08T17:13:01.747Z,101648.91
2019-06-08T17:15:34.083Z,101650.23
2019-06-08T17:18:05.415Z,101656.53
2019-06-08T17:20:36.763Z,101669.02
2019-06-08T17:23:08.009Z,101664.61
2019-06-08T17:25:40.535Z,101663.77
2019-06-08T17:28:12.107Z,101661.14
2019-06-08T17:30:43.302Z,101661.66
2019-06-08T17:33:14.514Z,101666.67
2019-06-08T17:35:45.737Z,101667.64
2019-06-08T17:38:16.994Z,101668.61
2019-06-08T17:40:48.183Z,101678.56
2019-06-08T17:43:19.325Z,101668.86
2019-06-08T17:45:50.685Z,101663.64
2019-06-08T17:48:21.968Z,101679.87
2019-06-08T17:50:53.229Z,101663.51
2019-06-08T17:53:25.594Z,101670.73
2019-06-08T17:55:56.902Z,101664.47
2019-06-08T17:58:28.091Z,101668.45
2019-06-08T18:00:59.337Z,101672.27
2019-06-08T18:03:30.559Z,101672.50
2019-06-08T18:06:01.744Z,101666.98
2019-06-08T18:08:33.789Z,101664.20
2019-06-08T18:11:05.142Z,101669.38
2019-06-08T18:13:39.055Z,101671.36
2019-06-08T18:16:09.431Z,101686.90
2019-06-08T18:18:42.316Z,101680.91
2019-06-08T18:21:13.564Z,101681.64
2019-06-08T18:23:45.304Z,101679.30
2019-06-08T18:26:17.247Z,101678.30
2019-06-08T18:28:48.727Z,101684.92
2019-06-08T18:31:19.920Z,101687.02
2019-06-08T18:33:51.261Z,101696.70
2019-06-08T18:36:22.445Z,101691.78
2019-06-08T18:38:53.738Z,101686.77
2019-06-08T18:41:27.022Z,101688.91
2019-06-08T18:43:58.426Z,101681.70
2019-06-08T18:46:29.739Z,101691.78
2019-06-08T18:49:02.115Z,101698.76
2019-06-08T18:51:33.405Z,101702.59
2019-06-08T18:54:11.332Z,101701.94
2019-06-08T18:56:40.068Z,101703.06
2019-06-08T18:59:10.609Z,101706.09
2019-06-08T19:01:42.169Z,101709.50
2019-06-08T19:04:14.693Z,101721.00
2019-06-08T19:06:48.386Z,101711.58
2019-06-08T19:09:19.339Z,101711.02
2019-06-08T19:11:50.792Z,101714.45
2019-06-08T19:14:22.323Z,101713.08
2019-06-08T19:16:54.836Z,101722.84
2019-06-08T19:19:52.317Z,101726.09
2019-06-08T19:22:44.668Z,101721.84
2019-06-08T19:25:17.619Z,101731.01
2019-06-08T19:27:53.124Z,101737.58
2019-06-08T19:30:24.255Z,101742.77
2019-06-08T19:32:55.129Z,101752.50
2019-06-08T19:35:27.381Z,101743.54
2019-06-08T19:37:58.741Z,101746.13
2019-06-08T19:40:30.071Z,101747.85
2019-06-08T19:43:01.683Z,101762.00
2019-06-08T19:45:33.183Z,101756.55
2019-06-08T19:48:04.421Z,101751.64
2019-06-08T19:50:35.611Z,101768.87
2019-06-08T19:53:07.333Z,101770.89
2019-06-08T19:55:39.348Z,101770.83
2019-06-08T19:58:10.650Z,101775.01
2019-06-08T20:00:42.374Z,101778.95
2019-06-08T20:03:14.467Z,101782.06
2019-06-08T20:05:46.771Z,101783.73
2019-06-08T20:08:18.668Z,101786.20
2019-06-08T20:10:50.797Z,101790.34
2019-06-08T20:13:22.364Z,101789.08
2019-06-08T20:15:58.312Z,101794.08
2019-06-08T20:18:27.935Z,101800.63
2019-06-08T20:20:59.432Z,101798.19
2019-06-08T20:23:30.636Z,101800.33
2019-06-08T20:26:01.938Z,101798.91
2019-06-08T20:28:34.277Z,101811.27
2019-06-08T20:31:07.464Z,101810.27
2019-06-08T20:33:38.480Z,101814.23
2019-06-08T20:36:09.646Z,101816.36
2019-06-08T20:38:43.758Z,101812.63
2019-06-08T20:41:13.660Z,101821.38
2019-06-08T20:43:47.757Z,101821.25
2019-06-08T20:46:20.262Z,101829.55
2019-06-08T20:48:51.997Z,101824.55
2019-06-08T20:51:23.692Z,101823.47
2019-06-08T20:53:57.171Z,101826.37
2019-06-08T20:56:28.193Z,101830.22
2019-06-08T20:58:59.501Z,101832.75
2019-06-08T21:01:30.817Z,101833.50
2019-06-08T21:04:03.765Z,101840.91
2019-06-08T21:06:35.025Z,101840.82
2019-06-08T21:09:07.933Z,101838.44
2019-06-08T21:11:39.364Z,101841.34
2019-06-08T21:14:10.675Z,101843.20
2019-06-08T21:16:41.863Z,101844.65
2019-06-08T21:19:13.048Z,101841.67
2019-06-08T21:21:45.619Z,101848.62
2019-06-08T21:24:17.410Z,101847.56
2019-06-08T21:26:51.258Z,101844.72
2019-06-08T21:29:21.613Z,101850.83
2019-06-08T21:31:55.094Z,101847.95
2019-06-08T21:34:25.763Z,101853.97
2019-06-08T21:37:00.684Z,101857.31
2019-06-08T21:39:29.872Z,101855.89
2019-06-08T21:42:03.021Z,101853.05
2019-06-08T21:44:34.063Z,101860.94
2019-06-08T21:47:07.705Z,101859.97
2019-06-08T21:49:38.543Z,101855.42
2019-06-08T21:52:09.907Z,101856.34
2019-06-08T21:54:41.103Z,101857.25
2019-06-08T21:57:12.485Z,101854.06
2019-06-08T21:59:43.804Z,101859.06
2019-06-08T22:02:15.251Z,101855.34
2019-06-08T22:04:47.773Z,101860.20
2019-06-08T22:07:19.225Z,101857.00
2019-06-08T22:09:50.498Z,101857.67
2019-06-08T22:12:21.781Z,101861.98
2019-06-08T22:14:53.012Z,101863.19
2019-06-08T22:17:24.102Z,101859.66
2019-06-08T22:19:55.340Z,101864.72
2019-06-08T22:22:26.503Z,101864.02
2019-06-08T22:25:00.982Z,101860.97
2019-06-08T22:27:31.425Z,101863.77
2019-06-08T22:30:09.800Z,101863.01
2019-06-08T22:32:38.275Z,101873.36
2019-06-08T22:35:08.385Z,101867.33
2019-06-08T22:37:39.580Z,101864.02
2019-06-08T22:40:10.778Z,101864.37
2019-06-08T22:42:41.931Z,101868.31
2019-06-08T22:45:13.272Z,101869.09
2019-06-08T22:47:44.467Z,101871.28
2019-06-08T22:50:18.401Z,101868.06
2019-06-08T22:52:48.771Z,101867.60
2019-06-08T22:55:19.974Z,101864.44
2019-06-08T22:57:51.179Z,101866.12
2019-06-08T23:00:24.805Z,101869.59
2019-06-08T23:02:56.760Z,101873.03
2019-06-08T23:05:28.275Z,101867.52
2019-06-08T23:08:04.324Z,101869.52
2019-06-08T23:10:32.368Z,101873.66
2019-06-08T23:13:04.364Z,101873.00
2019-06-08T23:15:36.445Z,101874.58
2019-06-08T23:18:09.429Z,101877.89
2019-06-08T23:20:40.456Z,101870.93
2019-06-08T23:23:11.633Z,101871.23
2019-06-08T23:25:42.867Z,101874.75
2019-06-08T23:28:14.056Z,101867.37
2019-06-08T23:30:47.690Z,101873.41
2019-06-08T23:33:19.192Z,101879.90
2019-06-08T23:36:32.322Z,101877.63
2019-06-08T23:38:23.250Z,101873.64
2019-06-08T23:40:54.451Z,101877.74
2019-06-08T23:43:28.024Z,101876.94
2019-06-08T23:46:00.882Z,101876.59
2019-06-08T23:48:32.564Z,101881.02
2019-06-08T23:51:04.330Z,101885.48
2019-06-08T23:53:38.038Z,101883.53
2019-06-08T23:56:11.740Z,101880.34
2019-06-08T23:58:41.413Z,101878.87
